EBOS/OST METAR and TAF weather

Enter ICAO airport designator
Station Type Date Time Source
EBOS METAR 2021/07/28 21:20 UTC NOAA

EBOS 282120Z 22013KT 9999 FEW025 15/11 Q1010 NOSIG


Station Type Date Time Source
EBOS Decoded METAR 2021/07/28 21:20 UTC NOAA

Oostende Airport , Belgium (EBOS) 51-12N 002-52E 5M
Jul 28, 2021 - 05:20 PM EDT / 2021.07.28 2120 UTC
Wind: from the SW (220 degrees) at 15 MPH (13 KT):0
Visibility: greater than 7 mile(s):0
Sky conditions: mostly clear
Temperature: 59 F (15 C)
Dew Point: 51 F (11 C)
Relative Humidity: 76%
Pressure (altimeter): 29.83 in. Hg (1010 hPa)
ob: EBOS 282120Z 22013KT 9999 FEW025 15/11 Q1010 NOSIG
cycle: 21

Station Type Date Time Source
EBOS TAF 2021/07/28 18:27 UTC NOAA

TAF EBOS 281700Z 2818/2924 23015KT 9999 SCT020TCU SCT040 PROB30
TEMPO 2818/2902 23018G30KT SHRA
TEMPO 2909/2916 25018G28KT

Example: see airport list